Time;durP1;ratioP1;P1;durP2;ratioP2;P2;SDS_P1;SDS_P2;PMS_P1;PMS_P2;Temp;Humidity;BMP_temperature;BMP_pressure;BME280_temperature;BME280_humidity;BME280_pressure;Samples;Min_cycle;Max_cycle;Signal;HPM_P1;HPM_P2
2023/07/31 00:02:14;;;;;;;4.70;4.40;;;;;;;;;;5014662;28;20452;-73
2023/07/31 00:04:41;;;;;;;5.17;4.67;;;;;;;;;;5014844;28;20447;-73
2023/07/31 00:07:09;;;;;;;4.03;3.73;;;;;;;;;;5014275;28;20453;-73
2023/07/31 00:09:36;;;;;;;5.10;3.90;;;;;;;;;;5014356;28;20572;-73
2023/07/31 00:12:03;;;;;;;3.90;3.60;;;;;;;;;;5014584;28;20481;-72
2023/07/31 00:14:30;;;;;;;3.97;3.67;;;;;;;;;;5014553;28;20451;-72
2023/07/31 00:16:59;;;;;;;3.33;3.03;;;;;;;;;;5014589;28;20453;-72
2023/07/31 00:19:26;;;;;;;3.13;2.83;;;;;;;;;;5014188;28;20454;-72
2023/07/31 00:21:53;;;;;;;3.03;2.73;;;;;;;;;;5014537;28;20446;-72
2023/07/31 00:24:20;;;;;;;2.80;2.57;;;;;;;;;;5014472;28;20457;-72
2023/07/31 00:26:47;;;;;;;2.77;2.57;;;;;;;;;;5014549;28;20472;-72
2023/07/31 00:29:15;;;;;;;4.23;2.53;;;;;;;;;;5014326;28;20449;-72
2023/07/31 00:31:42;;;;;;;2.57;2.37;;;;;;;;;;5014293;28;20488;-72
2023/07/31 00:34:10;;;;;;;3.07;2.83;;;;;;;;;;5013964;28;20441;-71
2023/07/31 00:36:37;;;;;;;2.70;2.27;;;;;;;;;;5014422;28;20790;-72
2023/07/31 00:39:05;;;;;;;2.43;2.23;;;;;;;;;;5013887;28;20928;-72
2023/07/31 00:41:32;;;;;;;2.70;2.50;;;;;;;;;;5014181;28;20947;-71
2023/07/31 00:43:59;;;;;;;3.60;2.80;;;;;;;;;;5014351;28;20456;-72
2023/07/31 00:46:26;;;;;;;3.07;2.50;;;;;;;;;;5014181;28;20449;-71
2023/07/31 00:48:54;;;;;;;2.60;2.40;;;;;;;;;;5013717;28;20488;-71
2023/07/31 00:51:22;;;;;;;2.60;2.40;;;;;;;;;;5014120;28;20484;-71
2023/07/31 00:53:50;;;;;;;2.27;2.07;;;;;;;;;;5013916;28;20446;-71
2023/07/31 00:56:17;;;;;;;2.43;2.23;;;;;;;;;;5013864;28;20455;-70
2023/07/31 00:58:44;;;;;;;3.10;2.33;;;;;;;;;;5013801;28;20533;-70
2023/07/31 01:01:12;;;;;;;2.60;2.40;;;;;;;;;;5014234;28;20450;-70
2023/07/31 01:03:39;;;;;;;4.00;1.97;;;;;;;;;;5014030;28;20444;-70
2023/07/31 01:06:11;;;;;;;2.37;2.17;;;;;;;;;;5013500;28;20541;-70
2023/07/31 01:08:42;;;;;;;2.73;2.30;;;;;;;;;;5012756;28;20928;-71
2023/07/31 01:11:16;;;;;;;4.50;2.10;;;;;;;;;;5014204;28;20470;-70
2023/07/31 01:13:44;;;;;;;2.40;2.20;;;;;;;;;;5013260;28;20424;-70
2023/07/31 01:16:11;;;;;;;2.40;2.20;;;;;;;;;;5013358;28;20953;-70
2023/07/31 01:18:38;;;;;;;2.67;1.93;;;;;;;;;;5013822;28;20448;-71
2023/07/31 01:21:12;;;;;;;4.63;2.40;;;;;;;;;;5013776;28;20463;-70
2023/07/31 01:24:10;;;;;;;2.07;1.87;;;;;;;;;;5013553;28;20423;-71
2023/07/31 01:26:40;;;;;;;2.37;2.27;;;;;;;;;;5013585;28;20476;-70
2023/07/31 01:29:10;;;;;;;2.57;2.27;;;;;;;;;;5013602;28;20468;-71
2023/07/31 01:31:38;;;;;;;6.60;2.30;;;;;;;;;;5013126;28;20561;-70
2023/07/31 01:34:05;;;;;;;2.57;2.10;;;;;;;;;;5013109;28;20444;-71
2023/07/31 01:36:33;;;;;;;2.50;2.30;;;;;;;;;;5013072;28;20453;-71
2023/07/31 01:39:00;;;;;;;2.87;2.57;;;;;;;;;;5013471;28;20442;-71
2023/07/31 01:41:27;;;;;;;2.50;2.13;;;;;;;;;;5013255;28;20447;-70
2023/07/31 01:43:56;;;;;;;2.50;2.30;;;;;;;;;;5013004;28;20793;-70
2023/07/31 01:46:23;;;;;;;2.60;2.27;;;;;;;;;;5013689;28;20440;-71
2023/07/31 01:48:50;;;;;;;4.30;2.27;;;;;;;;;;5012655;28;20540;-71
2023/07/31 01:51:18;;;;;;;2.10;1.80;;;;;;;;;;5012961;28;20480;-71
2023/07/31 01:53:45;;;;;;;3.67;2.27;;;;;;;;;;5013268;28;20552;-71
2023/07/31 01:56:12;;;;;;;2.47;1.97;;;;;;;;;;5013704;28;20453;-71
2023/07/31 01:58:39;;;;;;;3.70;1.70;;;;;;;;;;5012970;28;20457;-71
2023/07/31 02:01:08;;;;;;;3.67;1.70;;;;;;;;;;5013283;28;20807;-71
2023/07/31 02:03:35;;;;;;;3.80;1.93;;;;;;;;;;5012944;28;20482;-71
2023/07/31 02:06:02;;;;;;;2.10;2.00;;;;;;;;;;5012871;28;20622;-71
2023/07/31 02:08:29;;;;;;;2.30;2.10;;;;;;;;;;5013139;28;20450;-71
2023/07/31 02:10:56;;;;;;;2.37;2.17;;;;;;;;;;5012674;28;20455;-71
2023/07/31 02:13:24;;;;;;;2.10;2.00;;;;;;;;;;5013056;28;20461;-71
2023/07/31 02:15:51;;;;;;;2.70;2.50;;;;;;;;;;5013034;28;20442;-71
2023/07/31 02:18:20;;;;;;;2.40;2.20;;;;;;;;;;5012929;28;20538;-70
2023/07/31 02:20:50;;;;;;;3.30;2.77;;;;;;;;;;5015774;28;20438;-71
2023/07/31 02:23:18;;;;;;;4.17;2.90;;;;;;;;;;5016954;28;20439;-70
2023/07/31 02:25:45;;;;;;;4.33;3.80;;;;;;;;;;5016291;28;20472;-70
2023/07/31 02:28:12;;;;;;;6.97;4.47;;;;;;;;;;5016484;28;20457;-70
2023/07/31 02:30:40;;;;;;;11.67;7.53;;;;;;;;;;5016070;28;20928;-71
2023/07/31 02:33:07;;;;;;;12.67;7.07;;;;;;;;;;5016326;28;20486;-71
2023/07/31 02:35:35;;;;;;;18.77;8.40;;;;;;;;;;5016156;28;20788;-71
2023/07/31 02:38:03;;;;;;;14.53;7.90;;;;;;;;;;5016409;28;20448;-70
2023/07/31 02:40:30;;;;;;;11.90;8.20;;;;;;;;;;5016547;28;20440;-71
2023/07/31 02:42:57;;;;;;;14.60;9.80;;;;;;;;;;5016829;28;20454;-70
2023/07/31 02:45:24;;;;;;;20.70;9.00;;;;;;;;;;5015893;28;20453;-71
2023/07/31 02:47:52;;;;;;;18.20;9.63;;;;;;;;;;5015811;28;20450;-70
2023/07/31 02:50:19;;;;;;;18.37;10.53;;;;;;;;;;5015752;28;20453;-71
2023/07/31 02:52:48;;;;;;;20.33;12.33;;;;;;;;;;5016137;28;20477;-71
2023/07/31 02:55:15;;;;;;;17.33;10.67;;;;;;;;;;5015600;28;20450;-71
2023/07/31 02:57:42;;;;;;;22.50;10.90;;;;;;;;;;5016059;28;20449;-71
2023/07/31 03:00:10;;;;;;;15.93;9.77;;;;;;;;;;5016223;28;20446;-71
2023/07/31 03:02:37;;;;;;;21.43;8.93;;;;;;;;;;5015654;28;20966;-71
2023/07/31 03:05:04;;;;;;;16.87;9.70;;;;;;;;;;5015482;28;20941;-71
2023/07/31 03:07:31;;;;;;;22.10;9.37;;;;;;;;;;5015557;28;20447;-70
2023/07/31 03:10:00;;;;;;;18.20;9.40;;;;;;;;;;5015393;28;20446;-71
2023/07/31 03:12:27;;;;;;;15.07;9.73;;;;;;;;;;5016095;28;20835;-70
2023/07/31 03:14:54;;;;;;;19.17;9.87;;;;;;;;;;5016102;28;20442;-71
2023/07/31 03:17:21;;;;;;;14.70;9.47;;;;;;;;;;5016078;28;20536;-70
2023/07/31 03:19:49;;;;;;;21.77;9.00;;;;;;;;;;5015919;28;20449;-71
2023/07/31 03:22:16;;;;;;;19.03;9.33;;;;;;;;;;5015626;28;20447;-70
2023/07/31 03:24:43;;;;;;;20.70;9.43;;;;;;;;;;5015201;28;20779;-71
2023/07/31 03:27:12;;;;;;;24.43;8.77;;;;;;;;;;5016030;28;20492;-70
2023/07/31 03:29:39;;;;;;;14.93;9.57;;;;;;;;;;5015386;28;20438;-70
2023/07/31 03:32:06;;;;;;;14.27;8.40;;;;;;;;;;5014560;28;20482;-70
2023/07/31 03:34:34;;;;;;;15.70;8.07;;;;;;;;;;5015356;28;20805;-70
2023/07/31 03:37:01;;;;;;;18.90;8.87;;;;;;;;;;5015307;28;20442;-71
2023/07/31 03:39:28;;;;;;;19.20;8.50;;;;;;;;;;5015486;28;20441;-70
2023/07/31 03:41:55;;;;;;;18.10;8.10;;;;;;;;;;5014826;28;20460;-70
2023/07/31 03:44:24;;;;;;;13.40;8.43;;;;;;;;;;5014882;28;20452;-70
2023/07/31 03:46:51;;;;;;;18.10;7.67;;;;;;;;;;5014800;28;21004;-70
2023/07/31 03:49:18;;;;;;;12.03;8.07;;;;;;;;;;5015042;28;20890;-70
2023/07/31 03:51:46;;;;;;;17.03;8.03;;;;;;;;;;5014629;28;20437;-71
2023/07/31 03:54:13;;;;;;;13.07;7.10;;;;;;;;;;5014082;28;20613;-69
2023/07/31 03:56:41;;;;;;;13.70;6.87;;;;;;;;;;5013997;28;20947;-70
2023/07/31 03:59:08;;;;;;;18.87;8.47;;;;;;;;;;5014474;28;20916;-70
2023/07/31 04:01:36;;;;;;;14.93;8.47;;;;;;;;;;5014471;28;20532;-70
2023/07/31 04:04:04;;;;;;;14.93;8.20;;;;;;;;;;5014510;28;20494;-70
2023/07/31 04:06:31;;;;;;;15.77;6.37;;;;;;;;;;5014374;28;20533;-70
2023/07/31 04:08:58;;;;;;;17.57;7.60;;;;;;;;;;5014676;28;20447;-70
2023/07/31 04:11:25;;;;;;;10.03;6.67;;;;;;;;;;5014548;28;20555;-70
2023/07/31 04:13:52;;;;;;;16.63;9.30;;;;;;;;;;5014092;28;20482;-70
2023/07/31 04:16:19;;;;;;;18.77;8.07;;;;;;;;;;5014017;28;20540;-70
2023/07/31 04:18:48;;;;;;;14.47;7.37;;;;;;;;;;5014435;28;20932;-70
2023/07/31 04:21:15;;;;;;;16.13;7.70;;;;;;;;;;5014216;28;20454;-70
2023/07/31 04:23:42;;;;;;;13.83;7.00;;;;;;;;;;5014150;28;20451;-70
2023/07/31 04:26:09;;;;;;;15.27;7.47;;;;;;;;;;5013754;28;20487;-70
2023/07/31 04:28:37;;;;;;;18.00;6.57;;;;;;;;;;5013894;28;20915;-69
2023/07/31 04:31:04;;;;;;;15.13;7.80;;;;;;;;;;5013797;28;20930;-69
2023/07/31 04:33:32;;;;;;;24.30;8.87;;;;;;;;;;5014138;28;20488;-68
2023/07/31 04:36:01;;;;;;;11.03;7.40;;;;;;;;;;5013903;28;20479;-68
2023/07/31 04:38:29;;;;;;;13.83;6.90;;;;;;;;;;5014014;28;20834;-73
2023/07/31 04:40:56;;;;;;;16.57;6.70;;;;;;;;;;5014010;28;20451;-70
2023/07/31 04:43:23;;;;;;;15.07;6.37;;;;;;;;;;5013015;28;20532;-70
2023/07/31 04:45:50;;;;;;;13.20;6.30;;;;;;;;;;5013746;28;20509;-70
2023/07/31 04:48:18;;;;;;;17.17;6.40;;;;;;;;;;5013426;28;20445;-69
2023/07/31 04:50:45;;;;;;;21.10;7.00;;;;;;;;;;5013579;28;20447;-70
2023/07/31 04:53:13;;;;;;;8.67;5.33;;;;;;;;;;5013366;28;20486;-70
2023/07/31 04:55:41;;;;;;;13.40;7.37;;;;;;;;;;5013514;28;21028;-70
2023/07/31 04:58:08;;;;;;;11.57;5.90;;;;;;;;;;5013472;28;20477;-70
2023/07/31 05:00:35;;;;;;;11.07;6.37;;;;;;;;;;5013603;28;20519;-70
2023/07/31 05:03:02;;;;;;;10.33;6.00;;;;;;;;;;5013091;28;20545;-70
2023/07/31 05:05:29;;;;;;;11.37;7.10;;;;;;;;;;5013380;28;20448;-77
2023/07/31 05:07:57;;;;;;;17.87;7.67;;;;;;;;;;5013541;28;20539;-69
2023/07/31 05:10:25;;;;;;;13.80;7.10;;;;;;;;;;5013250;28;20933;-70
2023/07/31 05:12:52;;;;;;;15.97;7.07;;;;;;;;;;5013358;28;20488;-69
2023/07/31 05:15:20;;;;;;;14.10;6.33;;;;;;;;;;5013221;28;20447;-69
2023/07/31 05:17:47;;;;;;;15.40;6.30;;;;;;;;;;5013306;28;20437;-69
2023/07/31 05:20:15;;;;;;;13.60;7.03;;;;;;;;;;5013109;28;20448;-70
2023/07/31 05:22:42;;;;;;;16.57;7.17;;;;;;;;;;5012765;28;20451;-69
2023/07/31 05:25:10;;;;;;;19.00;6.33;;;;;;;;;;5013304;28;20503;-70
2023/07/31 05:27:38;;;;;;;13.90;6.53;;;;;;;;;;5013370;28;20449;-70
2023/07/31 05:30:06;;;;;;;14.00;6.00;;;;;;;;;;5012974;28;20448;-70
2023/07/31 05:32:33;;;;;;;12.07;5.97;;;;;;;;;;5012986;28;20531;-70
2023/07/31 05:35:00;;;;;;;12.47;6.30;;;;;;;;;;5013507;28;20609;-69
2023/07/31 05:37:28;;;;;;;14.87;6.70;;;;;;;;;;5013465;28;20458;-70
2023/07/31 05:39:55;;;;;;;13.37;7.10;;;;;;;;;;5013482;28;20532;-70
2023/07/31 05:42:22;;;;;;;15.37;6.77;;;;;;;;;;5013465;28;20445;-70
2023/07/31 05:44:51;;;;;;;14.27;6.50;;;;;;;;;;5013786;28;20445;-70
2023/07/31 05:47:18;;;;;;;13.90;7.13;;;;;;;;;;5013789;28;20525;-70
2023/07/31 05:49:45;;;;;;;12.93;6.47;;;;;;;;;;5013053;28;20453;-70
2023/07/31 05:52:12;;;;;;;12.77;7.33;;;;;;;;;;5013170;28;20446;-71
2023/07/31 05:54:39;;;;;;;18.80;7.70;;;;;;;;;;5014455;28;20439;-70
2023/07/31 05:57:07;;;;;;;15.87;6.43;;;;;;;;;;5017354;28;20460;-71
2023/07/31 05:59:34;;;;;;;15.80;6.03;;;;;;;;;;5017724;28;20442;-71
2023/07/31 06:02:03;;;;;;;12.70;6.80;;;;;;;;;;5017144;28;20443;-72
2023/07/31 06:04:30;;;;;;;14.37;5.83;;;;;;;;;;5017317;28;20917;-71
2023/07/31 06:06:57;;;;;;;17.13;6.10;;;;;;;;;;5017192;28;20573;-71
2023/07/31 06:09:25;;;;;;;12.73;6.60;;;;;;;;;;5016296;28;20450;-71
2023/07/31 06:11:53;;;;;;;17.67;7.30;;;;;;;;;;5016371;28;20459;-70
2023/07/31 06:14:20;;;;;;;13.70;6.70;;;;;;;;;;5016907;28;20481;-69
2023/07/31 06:16:47;;;;;;;24.43;7.30;;;;;;;;;;5016502;28;20452;-69
2023/07/31 06:19:16;;;;;;;13.50;6.67;;;;;;;;;;5016664;28;20796;-69
2023/07/31 06:21:43;;;;;;;13.10;7.70;;;;;;;;;;5016472;28;20538;-69
2023/07/31 06:24:12;;;;;;;10.73;6.77;;;;;;;;;;5016304;28;20489;-70
2023/07/31 06:26:39;;;;;;;9.60;6.43;;;;;;;;;;5016214;28;20567;-69
2023/07/31 06:29:06;;;;;;;13.93;6.43;;;;;;;;;;5016200;28;20457;-69
2023/07/31 06:31:34;;;;;;;9.53;5.00;;;;;;;;;;5016556;28;20896;-70
2023/07/31 06:34:01;;;;;;;14.17;6.07;;;;;;;;;;5016369;28;20489;-70
2023/07/31 06:36:29;;;;;;;12.70;6.77;;;;;;;;;;5016502;28;20534;-70
2023/07/31 06:38:57;;;;;;;14.73;7.33;;;;;;;;;;5016916;28;20467;-70
2023/07/31 06:41:24;;;;;;;18.83;6.47;;;;;;;;;;5016249;28;20447;-70
2023/07/31 06:43:51;;;;;;;15.27;7.17;;;;;;;;;;5016265;28;20457;-70
2023/07/31 06:46:18;;;;;;;12.13;5.70;;;;;;;;;;5015929;28;20528;-70
2023/07/31 06:48:46;;;;;;;17.43;6.77;;;;;;;;;;5015790;28;20450;-70
2023/07/31 06:51:13;;;;;;;13.70;6.20;;;;;;;;;;5016231;28;20936;-70
2023/07/31 06:53:42;;;;;;;13.80;6.10;;;;;;;;;;5015749;28;20855;-70
2023/07/31 06:56:09;;;;;;;12.47;6.13;;;;;;;;;;5015786;28;20451;-70
2023/07/31 06:58:37;;;;;;;12.57;6.10;;;;;;;;;;5015588;28;20451;-69
2023/07/31 07:01:04;;;;;;;22.50;6.70;;;;;;;;;;5015793;28;20520;-70
2023/07/31 07:03:32;;;;;;;10.30;6.00;;;;;;;;;;5016006;28;20453;-70
2023/07/31 07:05:59;;;;;;;12.33;7.00;;;;;;;;;;5014873;28;20472;-69
2023/07/31 07:08:26;;;;;;;16.37;7.40;;;;;;;;;;5015500;28;20475;-69
2023/07/31 07:10:55;;;;;;;15.70;7.80;;;;;;;;;;5015846;28;20532;-69
2023/07/31 07:13:22;;;;;;;13.83;7.70;;;;;;;;;;5015587;28;20484;-69
2023/07/31 07:15:50;;;;;;;11.53;7.53;;;;;;;;;;5015407;28;21006;-69
2023/07/31 07:18:17;;;;;;;13.93;7.33;;;;;;;;;;5015178;28;20447;-69
2023/07/31 07:20:48;;;;;;;17.93;7.10;;;;;;;;;;5015315;28;20930;-69
2023/07/31 07:23:15;;;;;;;14.50;8.10;;;;;;;;;;5015488;28;20439;-69
2023/07/31 07:25:42;;;;;;;14.47;9.60;;;;;;;;;;5015273;28;20988;-69
2023/07/31 07:28:11;;;;;;;13.33;7.83;;;;;;;;;;5015787;28;20530;-69
2023/07/31 07:30:38;;;;;;;13.03;8.17;;;;;;;;;;5015446;28;20528;-69
2023/07/31 07:33:05;;;;;;;14.30;7.93;;;;;;;;;;5015030;28;20486;-68
2023/07/31 07:35:35;;;;;;;14.70;8.67;;;;;;;;;;5015314;28;20526;-69
2023/07/31 07:38:02;;;;;;;14.43;8.33;;;;;;;;;;5015391;28;20901;-68
2023/07/31 07:40:29;;;;;;;15.33;8.97;;;;;;;;;;5015176;28;20446;-68
2023/07/31 07:42:56;;;;;;;14.10;9.40;;;;;;;;;;5015234;28;20456;-68
2023/07/31 07:45:25;;;;;;;11.67;9.33;;;;;;;;;;5015124;28;20481;-68
2023/07/31 07:47:52;;;;;;;10.83;8.10;;;;;;;;;;5015121;28;20876;-69
2023/07/31 07:50:19;;;;;;;11.57;9.17;;;;;;;;;;5014960;28;20489;-69
2023/07/31 07:52:46;;;;;;;15.17;9.23;;;;;;;;;;5014963;28;20534;-69
2023/07/31 07:55:13;;;;;;;12.07;8.90;;;;;;;;;;5014843;28;20443;-69
2023/07/31 07:57:41;;;;;;;9.63;8.63;;;;;;;;;;5014607;28;20452;-69
2023/07/31 08:00:10;;;;;;;11.07;8.50;;;;;;;;;;5014486;28;20445;-69
2023/07/31 08:02:38;;;;;;;10.03;8.90;;;;;;;;;;5014842;28;20447;-68
2023/07/31 08:05:06;;;;;;;10.53;8.13;;;;;;;;;;5014745;28;20523;-69
2023/07/31 08:07:33;;;;;;;9.40;8.60;;;;;;;;;;5014831;28;20490;-69
2023/07/31 08:10:01;;;;;;;11.03;8.50;;;;;;;;;;5014302;28;20532;-69
2023/07/31 08:12:28;;;;;;;10.30;8.90;;;;;;;;;;5015265;28;20538;-69
2023/07/31 08:14:55;;;;;;;10.27;7.60;;;;;;;;;;5014642;28;20976;-69
2023/07/31 08:17:22;;;;;;;8.40;7.57;;;;;;;;;;5014810;28;20474;-69
2023/07/31 08:19:51;;;;;;;9.10;7.77;;;;;;;;;;5014464;28;20445;-69
2023/07/31 08:22:18;;;;;;;11.20;8.50;;;;;;;;;;5014206;28;20804;-69
2023/07/31 08:24:45;;;;;;;7.97;7.17;;;;;;;;;;5014287;28;20444;-69
2023/07/31 08:27:13;;;;;;;8.63;7.83;;;;;;;;;;5014120;28;20454;-69
2023/07/31 08:29:40;;;;;;;8.10;7.37;;;;;;;;;;5013901;28;20467;-69
2023/07/31 08:32:07;;;;;;;8.10;7.30;;;;;;;;;;5013964;28;20533;-69
2023/07/31 08:34:34;;;;;;;10.17;6.53;;;;;;;;;;5014220;28;20917;-69
2023/07/31 08:37:03;;;;;;;16.63;7.37;;;;;;;;;;5014620;28;20482;-69
2023/07/31 08:39:30;;;;;;;7.43;6.70;;;;;;;;;;5014565;28;20525;-69
2023/07/31 08:42:00;;;;;;;7.50;6.70;;;;;;;;;;5013864;28;20487;-68
2023/07/31 08:44:27;;;;;;;7.30;6.30;;;;;;;;;;5013803;28;20448;-69
2023/07/31 08:46:54;;;;;;;7.60;6.90;;;;;;;;;;5014316;28;20528;-68
2023/07/31 08:49:22;;;;;;;9.83;8.83;;;;;;;;;;5013639;28;20439;-68
2023/07/31 08:51:50;;;;;;;7.70;6.57;;;;;;;;;;5013951;28;20471;-68
2023/07/31 08:54:19;;;;;;;7.33;6.57;;;;;;;;;;5013315;28;20563;-68
2023/07/31 08:56:47;;;;;;;6.00;5.50;;;;;;;;;;5013844;28;20443;-68
2023/07/31 08:59:15;;;;;;;5.77;5.10;;;;;;;;;;5013988;28;20869;-68
2023/07/31 09:01:45;;;;;;;5.07;4.67;;;;;;;;;;5013791;28;20477;-68
2023/07/31 09:04:13;;;;;;;6.40;5.80;;;;;;;;;;5014042;28;20431;-68
2023/07/31 09:06:41;;;;;;;7.37;5.40;;;;;;;;;;5013662;28;20873;-68
2023/07/31 09:09:09;;;;;;;4.90;4.50;;;;;;;;;;5013447;28;20538;-69
2023/07/31 09:11:38;;;;;;;5.00;4.40;;;;;;;;;;5013720;28;20479;-68
2023/07/31 09:14:08;;;;;;;8.83;5.70;;;;;;;;;;5013352;28;20489;-68
2023/07/31 09:16:36;;;;;;;6.43;5.57;;;;;;;;;;5013600;28;20482;-68
2023/07/31 09:19:05;;;;;;;5.90;5.33;;;;;;;;;;5013603;28;20868;-67
2023/07/31 09:21:32;;;;;;;6.10;5.50;;;;;;;;;;5013827;28;20797;-68
2023/07/31 09:23:59;;;;;;;7.23;5.37;;;;;;;;;;5013589;28;20453;-69
2023/07/31 09:26:33;;;;;;;6.37;5.63;;;;;;;;;;5013492;28;20962;-68
2023/07/31 09:29:03;;;;;;;6.93;5.10;;;;;;;;;;5014433;28;20486;-68
2023/07/31 09:31:42;;;;;;;6.23;5.63;;;;;;;;;;5020052;28;20468;-69
2023/07/31 09:34:10;;;;;;;6.30;5.70;;;;;;;;;;5020037;28;20573;-68
2023/07/31 09:36:41;;;;;;;4.97;4.57;;;;;;;;;;5019695;28;20436;-69
2023/07/31 09:39:10;;;;;;;6.60;5.23;;;;;;;;;;5019860;28;20437;-69
2023/07/31 09:41:38;;;;;;;5.47;4.97;;;;;;;;;;5020078;28;20502;-70
2023/07/31 09:44:07;;;;;;;5.40;4.90;;;;;;;;;;5019750;28;20451;-69
2023/07/31 09:46:36;;;;;;;5.10;4.70;;;;;;;;;;5019881;28;20542;-68
2023/07/31 09:49:10;;;;;;;5.90;5.40;;;;;;;;;;5020293;28;20454;-68
2023/07/31 09:51:39;;;;;;;6.23;5.57;;;;;;;;;;5020025;28;20441;-68
2023/07/31 09:54:11;;;;;;;5.10;4.70;;;;;;;;;;5019679;28;20477;-68
2023/07/31 09:56:40;;;;;;;8.03;5.90;;;;;;;;;;5019894;28;20915;-68
2023/07/31 09:59:09;;;;;;;6.10;5.10;;;;;;;;;;5019825;28;20508;-68
2023/07/31 10:01:36;;;;;;;6.43;5.90;;;;;;;;;;5019778;28;20539;-68
2023/07/31 10:04:06;;;;;;;5.90;5.33;;;;;;;;;;5019830;28;20481;-68
2023/07/31 10:06:35;;;;;;;5.40;5.00;;;;;;;;;;5019913;28;20492;-67
2023/07/31 10:09:02;;;;;;;7.00;5.27;;;;;;;;;;5019826;28;20865;-68
2023/07/31 10:11:32;;;;;;;4.97;4.57;;;;;;;;;;5019626;28;20465;-68
2023/07/31 10:13:59;;;;;;;4.90;4.50;;;;;;;;;;5019381;28;20891;-68
2023/07/31 10:16:28;;;;;;;5.17;4.77;;;;;;;;;;5019876;28;20536;-68
2023/07/31 10:18:58;;;;;;;8.50;6.13;;;;;;;;;;5019747;28;20536;-69
2023/07/31 10:21:26;;;;;;;5.07;4.67;;;;;;;;;;5019664;28;20517;-68
2023/07/31 10:23:56;;;;;;;4.47;4.07;;;;;;;;;;5020113;28;20546;-68
2023/07/31 10:26:25;;;;;;;4.43;4.03;;;;;;;;;;5019139;28;20561;-68
2023/07/31 10:28:52;;;;;;;4.40;4.10;;;;;;;;;;5019955;28;20480;-68
2023/07/31 10:31:20;;;;;;;5.93;5.10;;;;;;;;;;5019369;28;20446;-68
2023/07/31 10:33:49;;;;;;;5.80;5.30;;;;;;;;;;5019203;28;20454;-70
2023/07/31 10:36:18;;;;;;;5.93;5.33;;;;;;;;;;5019187;28;20485;-69
2023/07/31 10:38:45;;;;;;;5.87;5.27;;;;;;;;;;5019777;28;20526;-68
2023/07/31 10:41:13;;;;;;;6.13;5.60;;;;;;;;;;5017652;28;20445;-68
2023/07/31 10:43:40;;;;;;;6.40;5.80;;;;;;;;;;5016391;28;20845;-68
2023/07/31 10:46:09;;;;;;;6.60;6.07;;;;;;;;;;5016470;28;20927;-68
2023/07/31 10:48:40;;;;;;;6.37;5.77;;;;;;;;;;5016048;28;20449;-69
2023/07/31 10:51:10;;;;;;;5.47;5.03;;;;;;;;;;5016474;28;20517;-68
2023/07/31 10:53:41;;;;;;;6.40;5.90;;;;;;;;;;5016419;28;20419;-68
2023/07/31 10:56:09;;;;;;;8.70;5.60;;;;;;;;;;5015882;28;21100;-68
2023/07/31 10:58:37;;;;;;;7.13;6.17;;;;;;;;;;5016101;28;20870;-68
2023/07/31 11:01:05;;;;;;;6.57;5.73;;;;;;;;;;5015632;28;20529;-67
2023/07/31 11:03:45;;;;;;;6.73;5.90;;;;;;;;;;5015688;28;20457;-67
2023/07/31 11:06:14;;;;;;;5.53;5.10;;;;;;;;;;5015838;28;20465;-68
2023/07/31 11:08:45;;;;;;;6.20;5.63;;;;;;;;;;5015917;28;20473;-68
2023/07/31 11:11:13;;;;;;;5.80;5.30;;;;;;;;;;5015392;28;20439;-68
2023/07/31 11:13:49;;;;;;;5.90;5.40;;;;;;;;;;5015837;28;20475;-68
2023/07/31 11:16:16;;;;;;;7.23;5.90;;;;;;;;;;5015819;28;20520;-68
2023/07/31 11:18:44;;;;;;;7.20;6.50;;;;;;;;;;5015657;28;20439;-68
2023/07/31 11:21:15;;;;;;;7.27;6.57;;;;;;;;;;5015430;28;20455;-69
2023/07/31 11:23:42;;;;;;;6.63;6.10;;;;;;;;;;5016121;28;20429;-68
2023/07/31 11:26:09;;;;;;;6.60;6.10;;;;;;;;;;5015137;28;20478;-68
2023/07/31 11:28:38;;;;;;;5.87;5.37;;;;;;;;;;5015314;28;20535;-68
2023/07/31 11:31:05;;;;;;;7.27;5.20;;;;;;;;;;5015675;28;20487;-68
2023/07/31 11:33:32;;;;;;;6.30;5.80;;;;;;;;;;5015184;28;20532;-68
2023/07/31 11:35:59;;;;;;;5.80;5.40;;;;;;;;;;5015436;28;20832;-68
2023/07/31 11:38:29;;;;;;;6.10;5.67;;;;;;;;;;5015309;28;20451;-68
2023/07/31 11:40:57;;;;;;;6.23;5.73;;;;;;;;;;5014876;28;20956;-70
2023/07/31 11:43:26;;;;;;;6.30;5.80;;;;;;;;;;5014769;28;20532;-69
2023/07/31 11:45:54;;;;;;;7.00;6.50;;;;;;;;;;5015291;28;20451;-69
2023/07/31 11:48:22;;;;;;;7.80;6.50;;;;;;;;;;5014763;28;20505;-69
2023/07/31 11:50:50;;;;;;;8.40;7.70;;;;;;;;;;5014849;28;20443;-69
2023/07/31 11:53:18;;;;;;;9.47;8.57;;;;;;;;;;5014516;28;20434;-70
2023/07/31 11:55:47;;;;;;;8.43;7.80;;;;;;;;;;5014841;28;20538;-70
2023/07/31 11:58:16;;;;;;;12.23;8.73;;;;;;;;;;5014597;28;20945;-71
2023/07/31 12:00:43;;;;;;;9.50;8.57;;;;;;;;;;5014828;28;20530;-71
2023/07/31 12:03:10;;;;;;;10.57;9.67;;;;;;;;;;5024444;28;20855;-72
2023/07/31 12:05:39;;;;;;;11.30;10.27;;;;;;;;;;5013754;28;20493;-72
2023/07/31 12:08:11;;;;;;;11.10;10.10;;;;;;;;;;5013925;28;20439;-71
2023/07/31 12:10:40;;;;;;;12.13;11.03;;;;;;;;;;5014387;28;20457;-71
2023/07/31 12:13:10;;;;;;;11.60;10.40;;;;;;;;;;5014395;28;20441;-71
2023/07/31 12:15:41;;;;;;;14.73;11.37;;;;;;;;;;5014183;28;20536;-71
2023/07/31 12:18:09;;;;;;;11.67;10.77;;;;;;;;;;5014162;28;20860;-71
2023/07/31 12:20:37;;;;;;;12.70;10.80;;;;;;;;;;5013659;28;20947;-71
2023/07/31 12:23:04;;;;;;;11.07;9.97;;;;;;;;;;5013845;28;20441;-71
2023/07/31 12:25:32;;;;;;;10.93;10.13;;;;;;;;;;5013763;28;20478;-71
2023/07/31 12:27:59;;;;;;;9.67;8.77;;;;;;;;;;5013897;28;20534;-71
2023/07/31 12:30:34;;;;;;;9.80;8.13;;;;;;;;;;5013721;28;20443;-68
2023/07/31 12:33:05;;;;;;;10.60;8.40;;;;;;;;;;5013606;28;20432;-69
2023/07/31 12:35:36;;;;;;;8.77;7.87;;;;;;;;;;5013754;28;20467;-69
2023/07/31 12:38:03;;;;;;;7.90;7.30;;;;;;;;;;5013463;28;20959;-69
2023/07/31 12:40:31;;;;;;;7.33;6.53;;;;;;;;;;5013613;28;20450;-69
2023/07/31 12:42:58;;;;;;;6.93;6.17;;;;;;;;;;5013359;28;20497;-69
2023/07/31 12:45:25;;;;;;;8.27;7.40;;;;;;;;;;5014170;28;20565;-69
2023/07/31 12:47:54;;;;;;;7.20;6.50;;;;;;;;;;5013359;28;20455;-69
2023/07/31 12:50:21;;;;;;;7.13;6.40;;;;;;;;;;5013456;28;20560;-69
2023/07/31 12:52:48;;;;;;;5.70;5.30;;;;;;;;;;5013679;28;20435;-69
2023/07/31 12:55:16;;;;;;;6.50;5.90;;;;;;;;;;5013476;28;20565;-69
2023/07/31 12:57:43;;;;;;;6.20;5.70;;;;;;;;;;5013247;28;20961;-69
2023/07/31 13:00:11;;;;;;;7.00;6.37;;;;;;;;;;5013816;28;20469;-69
2023/07/31 13:02:38;;;;;;;6.50;6.00;;;;;;;;;;5013717;28;20526;-70
2023/07/31 13:05:07;;;;;;;6.27;5.67;;;;;;;;;;5013058;28;20454;-69
2023/07/31 13:07:34;;;;;;;6.60;5.90;;;;;;;;;;5013795;28;20469;-69
2023/07/31 13:10:04;;;;;;;7.73;7.00;;;;;;;;;;5013216;28;20447;-69
2023/07/31 13:12:31;;;;;;;6.60;6.10;;;;;;;;;;5014386;28;20498;-69
2023/07/31 13:14:59;;;;;;;6.10;5.50;;;;;;;;;;5013677;28;20568;-70
2023/07/31 13:17:26;;;;;;;6.43;5.90;;;;;;;;;;5013449;28;20466;-70
2023/07/31 13:19:53;;;;;;;6.90;5.67;;;;;;;;;;5013575;28;20498;-70
2023/07/31 13:22:22;;;;;;;6.70;6.10;;;;;;;;;;5014141;28;20531;-70
2023/07/31 13:24:49;;;;;;;6.53;6.03;;;;;;;;;;5013312;28;20570;-70
2023/07/31 13:27:18;;;;;;;6.00;5.50;;;;;;;;;;5013667;28;20548;-70
2023/07/31 13:29:45;;;;;;;8.33;5.90;;;;;;;;;;5013215;28;20444;-70
2023/07/31 13:32:13;;;;;;;8.77;7.67;;;;;;;;;;5013857;28;20474;-69
2023/07/31 13:34:40;;;;;;;7.63;6.93;;;;;;;;;;5012918;28;20485;-69
2023/07/31 13:37:07;;;;;;;8.03;7.43;;;;;;;;;;5013596;28;20846;-69
2023/07/31 13:39:36;;;;;;;14.13;8.03;;;;;;;;;;5013106;28;20450;-69
2023/07/31 13:42:06;;;;;;;8.83;8.03;;;;;;;;;;5013509;28;20534;-69
2023/07/31 13:44:33;;;;;;;10.10;7.23;;;;;;;;;;5013598;28;20426;-69
2023/07/31 13:47:01;;;;;;;7.73;7.03;;;;;;;;;;5013953;28;20469;-69
2023/07/31 13:49:28;;;;;;;12.53;8.13;;;;;;;;;;5013337;28;20441;-69
2023/07/31 13:51:55;;;;;;;7.50;6.80;;;;;;;;;;5013583;28;20810;-69
2023/07/31 13:54:22;;;;;;;7.50;6.80;;;;;;;;;;5013417;28;20452;-69
2023/07/31 13:56:51;;;;;;;7.23;6.53;;;;;;;;;;5013635;28;20586;-69
2023/07/31 13:59:18;;;;;;;6.80;6.20;;;;;;;;;;5013924;28;20483;-69
2023/07/31 14:01:46;;;;;;;6.87;6.30;;;;;;;;;;5013656;28;20445;-69
2023/07/31 14:04:13;;;;;;;6.97;6.30;;;;;;;;;;5013249;28;20443;-69
2023/07/31 14:06:40;;;;;;;7.20;6.60;;;;;;;;;;5013126;28;20537;-69
2023/07/31 14:09:08;;;;;;;6.63;6.13;;;;;;;;;;5012796;28;20931;-69
2023/07/31 14:11:35;;;;;;;6.13;5.63;;;;;;;;;;5012940;28;20958;-69
2023/07/31 14:14:04;;;;;;;7.03;6.43;;;;;;;;;;5013067;28;20471;-69
2023/07/31 14:16:31;;;;;;;6.27;5.70;;;;;;;;;;5015528;28;20842;-69
2023/07/31 14:18:59;;;;;;;7.10;6.50;;;;;;;;;;5016765;28;20444;-69
2023/07/31 14:21:26;;;;;;;6.50;6.00;;;;;;;;;;5016826;28;20445;-69
2023/07/31 14:23:54;;;;;;;6.13;5.63;;;;;;;;;;5016759;28;20446;-70
2023/07/31 14:26:21;;;;;;;5.20;4.70;;;;;;;;;;5016842;28;20478;-70
2023/07/31 14:28:48;;;;;;;5.27;4.73;;;;;;;;;;5016331;28;20537;-70
2023/07/31 14:31:17;;;;;;;4.87;4.47;;;;;;;;;;5016635;28;20446;-70
2023/07/31 14:33:44;;;;;;;5.53;5.07;;;;;;;;;;5016459;28;20537;-70
2023/07/31 14:36:11;;;;;;;5.87;5.33;;;;;;;;;;5015992;28;20481;-69
2023/07/31 14:38:39;;;;;;;8.40;4.87;;;;;;;;;;5015993;28;20547;-68
2023/07/31 14:41:06;;;;;;;6.03;5.50;;;;;;;;;;5016159;28;20534;-70